Time;durP1;ratioP1;P1;durP2;ratioP2;P2;SDS_P1;SDS_P2;PMS_P1;PMS_P2;Temp;Humidity;BMP_temperature;BMP_pressure;BME280_temperature;BME280_humidity;BME280_pressure;Samples;Min_cycle;Max_cycle;Signal;HPM_P1;HPM_P2
2023/02/26 00:00:24;;;;;;;1999.90;999.90;;;;;;;;;;5013615;28;20482;-72
2023/02/26 00:03:09;;;;;;;1999.90;999.90;;;;;;;;;;5005773;28;20423;-72
2023/02/26 00:05:54;;;;;;;1999.90;999.90;;;;;;;;;;5014830;28;20226;-72
2023/02/26 00:08:38;;;;;;;1999.90;999.90;;;;;;;;;;4993000;28;20419;-70
2023/02/26 00:11:25;;;;;;;1999.90;999.90;;;;;;;;;;5023390;28;20694;-70
2023/02/26 00:14:12;;;;;;;1999.90;999.90;;;;;;;;;;5010601;28;20446;-70
2023/02/26 00:17:05;;;;;;;1999.90;999.90;;;;;;;;;;5011511;28;20533;-72
2023/02/26 00:19:51;;;;;;;1999.90;999.90;;;;;;;;;;5018892;28;21100;-71
2023/02/26 00:22:36;;;;;;;1999.90;999.90;;;;;;;;;;5021931;28;20472;-71
2023/02/26 00:25:21;;;;;;;1999.90;999.90;;;;;;;;;;5012854;28;20444;-71
2023/02/26 00:28:08;;;;;;;1999.90;999.90;;;;;;;;;;5011459;28;20986;-71
2023/02/26 00:30:54;;;;;;;1999.90;999.90;;;;;;;;;;5011578;28;20451;-68
2023/02/26 00:33:39;;;;;;;1999.90;999.90;;;;;;;;;;5020535;28;20923;-68
2023/02/26 00:36:27;;;;;;;1999.90;999.90;;;;;;;;;;5010725;28;20426;-68
2023/02/26 00:39:18;;;;;;;1999.90;999.90;;;;;;;;;;5014718;28;20455;-69
2023/02/26 00:42:03;;;;;;;1999.90;999.90;;;;;;;;;;5016301;28;20769;-71
2023/02/26 00:44:50;;;;;;;1999.90;999.90;;;;;;;;;;5018999;28;20224;-68
2023/02/26 00:47:39;;;;;;;1999.90;999.90;;;;;;;;;;5020379;28;20430;-70
2023/02/26 00:50:25;;;;;;;1999.90;999.90;;;;;;;;;;5006750;28;20423;-71
2023/02/26 00:53:16;;;;;;;1999.90;999.90;;;;;;;;;;5011313;28;20469;-73
2023/02/26 00:56:01;;;;;;;1999.90;999.90;;;;;;;;;;5011960;28;20447;-72
2023/02/26 00:58:46;;;;;;;1999.90;999.90;;;;;;;;;;5010643;28;20456;-72
2023/02/26 01:01:32;;;;;;;1999.90;999.90;;;;;;;;;;5012221;28;20425;-72
2023/02/26 01:04:18;;;;;;;1999.90;999.90;;;;;;;;;;5011159;28;20889;-71
2023/02/26 01:07:03;;;;;;;1999.90;999.90;;;;;;;;;;5012081;28;20566;-72
2023/02/26 01:09:49;;;;;;;1999.90;999.90;;;;;;;;;;5008115;28;20435;-74
2023/02/26 01:12:34;;;;;;;1999.90;999.90;;;;;;;;;;5011058;28;20529;-73
2023/02/26 01:15:19;;;;;;;1999.90;999.90;;;;;;;;;;5005406;28;20437;-73
2023/02/26 01:18:11;;;;;;;1999.90;999.90;;;;;;;;;;5009970;28;20831;-73
2023/02/26 01:20:57;;;;;;;1999.90;999.90;;;;;;;;;;5011812;28;20465;-73
2023/02/26 01:23:45;;;;;;;1999.90;999.90;;;;;;;;;;5010831;28;20457;-73
2023/02/26 01:26:30;;;;;;;1999.90;999.90;;;;;;;;;;5006316;28;20470;-73
2023/02/26 01:29:15;;;;;;;1999.90;999.90;;;;;;;;;;5010758;28;20449;-73
2023/02/26 01:32:03;;;;;;;1999.90;999.90;;;;;;;;;;5011844;28;20503;-74
2023/02/26 01:34:54;;;;;;;1999.90;999.90;;;;;;;;;;5015494;28;20493;-73
2023/02/26 01:37:46;;;;;;;1999.90;999.90;;;;;;;;;;5014597;28;20809;-74
2023/02/26 01:40:54;;;;;;;1999.90;999.90;;;;;;;;;;5010396;28;20467;-73
2023/02/26 01:43:43;;;;;;;1999.90;999.90;;;;;;;;;;5008593;28;20444;-73
2023/02/26 01:46:32;;;;;;;1999.90;999.90;;;;;;;;;;5009254;28;20964;-73
2023/02/26 01:49:18;;;;;;;1999.90;999.90;;;;;;;;;;5010724;28;20447;-73
2023/02/26 01:52:05;;;;;;;1999.90;999.90;;;;;;;;;;5014823;28;20450;-73
2023/02/26 01:54:50;;;;;;;1999.90;999.90;;;;;;;;;;5015108;28;20457;-73
2023/02/26 01:57:35;;;;;;;1999.90;999.90;;;;;;;;;;5013955;28;20461;-73
2023/02/26 02:00:20;;;;;;;1999.90;999.90;;;;;;;;;;5008532;28;20453;-73
2023/02/26 02:03:05;;;;;;;1999.90;999.90;;;;;;;;;;5013177;28;20452;-73
2023/02/26 02:05:52;;;;;;;1999.90;999.90;;;;;;;;;;5013925;28;20411;-73
2023/02/26 02:08:38;;;;;;;1999.90;999.90;;;;;;;;;;5010830;28;20206;-74
2023/02/26 02:11:23;;;;;;;1999.90;999.90;;;;;;;;;;4998412;28;21044;-73
2023/02/26 02:14:11;;;;;;;1999.90;999.90;;;;;;;;;;5014850;28;20867;-73
2023/02/26 02:17:00;;;;;;;1999.90;999.90;;;;;;;;;;5013947;28;20467;-74
2023/02/26 02:20:12;;;;;;;1999.90;999.90;;;;;;;;;;5014871;28;20462;-73
2023/02/26 02:23:03;;;;;;;1999.90;999.90;;;;;;;;;;4994758;28;20465;-73
2023/02/26 02:26:07;;;;;;;1999.90;999.90;;;;;;;;;;5013439;28;20455;-72
2023/02/26 02:29:02;;;;;;;1999.90;999.90;;;;;;;;;;5014783;28;20425;-73
2023/02/26 02:31:52;;;;;;;1999.90;999.90;;;;;;;;;;5012157;28;21002;-74
2023/02/26 02:34:39;;;;;;;1999.90;999.90;;;;;;;;;;5013470;28;20282;-74
2023/02/26 02:37:27;;;;;;;1999.90;999.90;;;;;;;;;;5010535;28;20504;-73
2023/02/26 02:40:14;;;;;;;1999.90;999.90;;;;;;;;;;4994984;28;20454;-74
2023/02/26 02:43:01;;;;;;;1999.90;999.90;;;;;;;;;;5012370;28;20438;-73
2023/02/26 02:45:48;;;;;;;1999.90;999.90;;;;;;;;;;5013721;28;20833;-73
2023/02/26 02:48:36;;;;;;;1999.90;999.90;;;;;;;;;;5009203;28;20513;-73
2023/02/26 02:51:23;;;;;;;1999.90;999.90;;;;;;;;;;5013821;28;20451;-73
2023/02/26 02:54:11;;;;;;;1999.90;999.90;;;;;;;;;;5014217;28;20990;-74
2023/02/26 02:57:01;;;;;;;1999.90;999.90;;;;;;;;;;5012993;28;20454;-73
2023/02/26 02:59:48;;;;;;;1999.90;999.90;;;;;;;;;;5015151;28;20589;-74
2023/02/26 03:02:36;;;;;;;1999.90;999.90;;;;;;;;;;5010135;28;20424;-74
2023/02/26 03:05:22;;;;;;;1999.90;999.90;;;;;;;;;;5002147;28;20477;-74
2023/02/26 03:08:09;;;;;;;1999.90;999.90;;;;;;;;;;5015099;28;20424;-74
2023/02/26 03:10:54;;;;;;;1999.90;999.90;;;;;;;;;;5013908;28;20517;-73
2023/02/26 03:13:40;;;;;;;1999.90;999.90;;;;;;;;;;5014565;28;20424;-73
2023/02/26 03:16:34;;;;;;;1999.90;999.90;;;;;;;;;;5013164;28;20449;-74
2023/02/26 03:19:22;;;;;;;1999.90;999.90;;;;;;;;;;4994488;28;20914;-73
2023/02/26 03:22:13;;;;;;;1999.90;999.90;;;;;;;;;;5012965;28;20434;-73
2023/02/26 03:25:00;;;;;;;1999.90;999.90;;;;;;;;;;5012997;28;21155;-74
2023/02/26 03:27:47;;;;;;;1999.90;999.90;;;;;;;;;;5013578;28;20441;-73
2023/02/26 03:30:34;;;;;;;1999.90;999.90;;;;;;;;;;5012681;28;20501;-75
2023/02/26 03:33:22;;;;;;;1999.90;999.90;;;;;;;;;;5006096;28;20419;-73
2023/02/26 03:36:10;;;;;;;1999.90;999.90;;;;;;;;;;5012337;28;20997;-74
2023/02/26 03:38:58;;;;;;;1999.90;999.90;;;;;;;;;;5013512;28;20429;-74
2023/02/26 03:41:46;;;;;;;1999.90;999.90;;;;;;;;;;5008861;28;20473;-73
2023/02/26 03:44:33;;;;;;;1999.90;999.90;;;;;;;;;;4998642;28;20542;-74
2023/02/26 03:47:19;;;;;;;1999.90;999.90;;;;;;;;;;5005553;28;20412;-73
2023/02/26 03:50:06;;;;;;;1999.90;999.90;;;;;;;;;;5012557;28;21069;-74
2023/02/26 03:52:52;;;;;;;1999.90;999.90;;;;;;;;;;5012387;28;20417;-74
2023/02/26 03:55:40;;;;;;;1999.90;999.90;;;;;;;;;;5011144;28;20751;-73
2023/02/26 03:58:25;;;;;;;1999.90;999.90;;;;;;;;;;4993744;28;20567;-74
2023/02/26 04:01:13;;;;;;;1999.90;999.90;;;;;;;;;;5012766;28;20830;-73
2023/02/26 04:04:00;;;;;;;1999.90;999.90;;;;;;;;;;5011833;28;20469;-74
2023/02/26 04:06:46;;;;;;;1999.90;999.90;;;;;;;;;;5012772;28;20866;-74
2023/02/26 04:09:31;;;;;;;1999.90;999.90;;;;;;;;;;5012191;28;20454;-73
2023/02/26 04:12:20;;;;;;;1999.90;999.90;;;;;;;;;;5012911;28;20801;-74
2023/02/26 04:15:06;;;;;;;1999.90;999.90;;;;;;;;;;5011581;28;20477;-73
2023/02/26 04:17:51;;;;;;;1999.90;999.90;;;;;;;;;;5012594;28;20510;-74
2023/02/26 04:20:36;;;;;;;1999.90;999.90;;;;;;;;;;5011522;28;20223;-73
2023/02/26 04:23:21;;;;;;;1999.90;999.90;;;;;;;;;;5007519;28;20527;-73
2023/02/26 04:26:06;;;;;;;1999.90;999.90;;;;;;;;;;5012326;28;20480;-72
2023/02/26 04:28:52;;;;;;;1999.90;999.90;;;;;;;;;;5007118;28;20602;-74
2023/02/26 04:31:37;;;;;;;1999.90;999.90;;;;;;;;;;5017622;28;20565;-73
2023/02/26 04:34:22;;;;;;;1999.90;999.90;;;;;;;;;;5017042;28;20529;-73
2023/02/26 04:37:07;;;;;;;1999.90;999.90;;;;;;;;;;5017874;28;20418;-74
2023/02/26 04:39:52;;;;;;;1999.90;999.90;;;;;;;;;;5014817;28;20552;-73
2023/02/26 04:42:37;;;;;;;1999.90;999.90;;;;;;;;;;5011360;28;20474;-72
2023/02/26 04:45:24;;;;;;;1999.90;999.90;;;;;;;;;;5011385;28;20441;-72
2023/02/26 04:48:09;;;;;;;1999.90;999.90;;;;;;;;;;5004525;28;20447;-71
2023/02/26 04:50:54;;;;;;;1999.90;999.90;;;;;;;;;;5016481;28;20424;-73
2023/02/26 04:53:39;;;;;;;1999.90;999.90;;;;;;;;;;5016595;28;20508;-73
2023/02/26 04:56:24;;;;;;;1999.90;999.90;;;;;;;;;;5016467;28;21072;-73
2023/02/26 04:59:09;;;;;;;1999.90;999.90;;;;;;;;;;5014286;28;20426;-73
2023/02/26 05:01:55;;;;;;;1999.90;999.90;;;;;;;;;;5012618;28;20536;-73
2023/02/26 05:04:40;;;;;;;1999.90;999.90;;;;;;;;;;5013140;28;20443;-74
2023/02/26 05:07:25;;;;;;;1999.90;999.90;;;;;;;;;;5015082;28;20946;-73
2023/02/26 05:10:10;;;;;;;1999.90;999.90;;;;;;;;;;5013954;28;20424;-74
2023/02/26 05:12:55;;;;;;;1999.90;999.90;;;;;;;;;;5012603;28;20831;-74
2023/02/26 05:15:40;;;;;;;1999.90;999.90;;;;;;;;;;5014953;28;20445;-74
2023/02/26 05:18:27;;;;;;;1999.90;999.90;;;;;;;;;;5022908;28;20507;-73
2023/02/26 05:21:12;;;;;;;1999.90;999.90;;;;;;;;;;5016892;28;20487;-73
2023/02/26 05:23:57;;;;;;;1999.90;999.90;;;;;;;;;;5017928;28;20449;-73
2023/02/26 05:26:42;;;;;;;1999.90;999.90;;;;;;;;;;5009593;28;20428;-74
2023/02/26 05:29:27;;;;;;;1999.90;999.90;;;;;;;;;;5009616;28;20433;-72
2023/02/26 05:32:12;;;;;;;1999.90;999.90;;;;;;;;;;5016551;28;20507;-73
2023/02/26 05:34:58;;;;;;;1999.90;999.90;;;;;;;;;;5020604;28;20443;-73
2023/02/26 05:37:43;;;;;;;1999.90;999.90;;;;;;;;;;5013471;28;20896;-73
2023/02/26 05:40:28;;;;;;;1999.90;999.90;;;;;;;;;;5001872;28;20944;-72
2023/02/26 05:43:13;;;;;;;1999.90;999.90;;;;;;;;;;5010722;28;20223;-72
2023/02/26 05:45:58;;;;;;;1999.90;999.90;;;;;;;;;;5006042;28;20444;-72
2023/02/26 05:48:42;;;;;;;1999.90;999.90;;;;;;;;;;5009621;28;20452;-70
2023/02/26 05:51:29;;;;;;;1999.90;999.90;;;;;;;;;;5006755;28;20538;-73
2023/02/26 05:54:14;;;;;;;1999.90;999.90;;;;;;;;;;4967578;28;1090225;-73
2023/02/26 05:56:59;;;;;;;1999.90;999.90;;;;;;;;;;5005711;28;20267;-74
2023/02/26 05:59:44;;;;;;;1999.90;999.90;;;;;;;;;;5008843;28;20985;-73
2023/02/26 06:02:29;;;;;;;1999.90;999.90;;;;;;;;;;5020768;28;20486;-72
2023/02/26 06:05:14;;;;;;;1999.90;999.90;;;;;;;;;;5015679;28;20538;-73
2023/02/26 06:08:00;;;;;;;1999.90;999.90;;;;;;;;;;5020593;28;20296;-73
2023/02/26 06:10:45;;;;;;;1999.90;999.90;;;;;;;;;;5012183;28;20419;-74
2023/02/26 06:13:30;;;;;;;1999.90;999.90;;;;;;;;;;5030088;28;20497;-74
2023/02/26 06:16:15;;;;;;;1999.90;999.90;;;;;;;;;;5029620;28;20435;-73
2023/02/26 06:19:00;;;;;;;1999.90;999.90;;;;;;;;;;5016672;28;20433;-73
2023/02/26 06:21:45;;;;;;;1999.90;999.90;;;;;;;;;;5006426;28;20586;-73
2023/02/26 06:24:32;;;;;;;1999.90;999.90;;;;;;;;;;4995183;28;20793;-74
2023/02/26 06:27:17;;;;;;;1999.90;999.90;;;;;;;;;;5008756;28;20425;-73
2023/02/26 06:30:03;;;;;;;1999.90;999.90;;;;;;;;;;5014963;28;20564;-73
2023/02/26 06:32:48;;;;;;;1999.90;999.90;;;;;;;;;;5015521;28;20836;-74
2023/02/26 06:35:33;;;;;;;1999.90;999.90;;;;;;;;;;5014565;28;20445;-73
2023/02/26 06:38:18;;;;;;;1999.90;999.90;;;;;;;;;;5014092;28;20499;-73
2023/02/26 06:41:05;;;;;;;1999.90;999.90;;;;;;;;;;5014347;28;20455;-73
2023/02/26 06:43:50;;;;;;;1999.90;999.90;;;;;;;;;;5014674;28;20443;-73
2023/02/26 06:46:35;;;;;;;1999.90;999.90;;;;;;;;;;5014473;28;20421;-72
2023/02/26 06:49:20;;;;;;;1999.90;999.90;;;;;;;;;;5014428;28;20432;-73
2023/02/26 06:52:05;;;;;;;1999.90;999.90;;;;;;;;;;5014707;28;20420;-73
2023/02/26 06:54:50;;;;;;;1999.90;999.90;;;;;;;;;;5014261;28;20456;-73
2023/02/26 06:57:37;;;;;;;1999.90;999.90;;;;;;;;;;5014415;28;20476;-72
2023/02/26 07:00:22;;;;;;;1999.90;999.90;;;;;;;;;;5014306;28;20420;-72
2023/02/26 07:03:09;;;;;;;1999.90;999.90;;;;;;;;;;5014467;28;20433;-74
2023/02/26 07:05:54;;;;;;;1999.90;999.90;;;;;;;;;;5014432;28;20483;-72
2023/02/26 07:08:39;;;;;;;1999.90;999.90;;;;;;;;;;5014241;28;20949;-74
2023/02/26 07:11:24;;;;;;;1999.90;999.90;;;;;;;;;;5013932;28;20507;-73
2023/02/26 07:14:10;;;;;;;1999.90;999.90;;;;;;;;;;5014359;28;20438;-73
2023/02/26 07:16:55;;;;;;;1999.90;999.90;;;;;;;;;;5011588;28;20419;-74
2023/02/26 07:19:40;;;;;;;1999.90;999.90;;;;;;;;;;5014140;28;20416;-76
2023/02/26 07:22:25;;;;;;;1999.90;999.90;;;;;;;;;;5013025;28;20550;-74
2023/02/26 07:25:11;;;;;;;1999.90;999.90;;;;;;;;;;5013529;28;20445;-76
2023/02/26 07:27:57;;;;;;;1999.90;999.90;;;;;;;;;;5014601;28;20424;-75
2023/02/26 07:30:43;;;;;;;1999.90;999.90;;;;;;;;;;5032528;28;20444;-74
2023/02/26 07:33:30;;;;;;;1999.90;999.90;;;;;;;;;;5009278;28;20462;-75
2023/02/26 07:36:15;;;;;;;1999.90;999.90;;;;;;;;;;5016234;28;20409;-76
2023/02/26 07:39:00;;;;;;;1999.90;999.90;;;;;;;;;;5012693;28;20791;-73
2023/02/26 07:41:45;;;;;;;1999.90;999.90;;;;;;;;;;5013998;28;20464;-76
2023/02/26 07:44:30;;;;;;;1999.90;999.90;;;;;;;;;;5019387;28;20986;-76
2023/02/26 07:47:17;;;;;;;1999.90;999.90;;;;;;;;;;5017659;28;20506;-76
2023/02/26 07:50:02;;;;;;;1999.90;999.90;;;;;;;;;;5028113;28;20395;-75
2023/02/26 07:52:47;;;;;;;1999.90;999.90;;;;;;;;;;5032203;28;20198;-75
2023/02/26 07:55:32;;;;;;;1999.90;999.90;;;;;;;;;;5013739;28;20750;-76
2023/02/26 07:58:17;;;;;;;1999.90;999.90;;;;;;;;;;5020869;28;20420;-76
2023/02/26 08:01:02;;;;;;;1999.90;999.90;;;;;;;;;;5007922;28;20230;-74
2023/02/26 08:03:49;;;;;;;1999.90;999.90;;;;;;;;;;5008905;28;20583;-75
2023/02/26 08:06:34;;;;;;;1999.90;999.90;;;;;;;;;;5008137;28;20302;-75
2023/02/26 08:09:19;;;;;;;1999.90;999.90;;;;;;;;;;5010708;28;20718;-74
2023/02/26 08:12:04;;;;;;;1999.90;999.90;;;;;;;;;;5009342;28;20687;-74
2023/02/26 08:14:49;;;;;;;1999.90;999.90;;;;;;;;;;5009714;28;20281;-75
2023/02/26 08:17:34;;;;;;;1999.90;999.90;;;;;;;;;;5011758;28;20322;-73
2023/02/26 08:20:20;;;;;;;1999.90;999.90;;;;;;;;;;5011826;28;20242;-74
2023/02/26 08:23:06;;;;;;;1999.90;999.90;;;;;;;;;;5010179;28;20230;-73
2023/02/26 08:25:50;;;;;;;1999.90;999.90;;;;;;;;;;5008772;28;20236;-75
2023/02/26 08:28:36;;;;;;;1999.90;999.90;;;;;;;;;;5009243;28;20206;-76
2023/02/26 08:31:21;;;;;;;1999.90;999.90;;;;;;;;;;5006174;28;20245;-74
2023/02/26 08:34:06;;;;;;;1999.90;999.90;;;;;;;;;;5007052;28;20316;-74
2023/02/26 08:36:52;;;;;;;1999.90;999.90;;;;;;;;;;5008359;28;20986;-74
2023/02/26 08:39:37;;;;;;;1999.90;999.90;;;;;;;;;;5010396;28;20543;-76
2023/02/26 08:42:23;;;;;;;1999.90;999.90;;;;;;;;;;5007904;28;20228;-76
2023/02/26 08:45:08;;;;;;;1999.90;999.90;;;;;;;;;;5010255;28;20817;-78
2023/02/26 08:47:54;;;;;;;1999.90;999.90;;;;;;;;;;5011404;28;20249;-76
2023/02/26 08:50:39;;;;;;;1999.90;999.90;;;;;;;;;;5012784;28;20230;-77
2023/02/26 08:53:26;;;;;;;1999.90;999.90;;;;;;;;;;5009962;28;20416;-76
2023/02/26 08:56:11;;;;;;;1999.90;999.90;;;;;;;;;;5009582;28;20284;-75
2023/02/26 08:58:56;;;;;;;1999.90;999.90;;;;;;;;;;5010005;28;20219;-75
2023/02/26 09:01:41;;;;;;;1999.90;999.90;;;;;;;;;;5008849;28;20301;-73
2023/02/26 09:04:27;;;;;;;1999.90;999.90;;;;;;;;;;5009788;28;20250;-74
2023/02/26 09:07:12;;;;;;;1999.90;999.90;;;;;;;;;;5010802;28;20215;-75
2023/02/26 09:09:58;;;;;;;1999.90;999.90;;;;;;;;;;5011829;28;20632;-75
2023/02/26 09:12:43;;;;;;;1999.90;999.90;;;;;;;;;;5010267;28;20515;-75
2023/02/26 09:15:29;;;;;;;1999.90;999.90;;;;;;;;;;5012098;28;20255;-75
2023/02/26 09:18:15;;;;;;;1999.90;999.90;;;;;;;;;;5012511;28;20240;-75
2023/02/26 09:21:00;;;;;;;1999.90;999.90;;;;;;;;;;5012656;28;20195;-75
2023/02/26 09:23:44;;;;;;;1999.90;999.90;;;;;;;;;;5012320;28;20702;-76
2023/02/26 09:26:31;;;;;;;1999.90;999.90;;;;;;;;;;5009291;28;20218;-75
2023/02/26 09:29:16;;;;;;;1999.90;999.90;;;;;;;;;;5002654;28;20214;-75
2023/02/26 09:32:01;;;;;;;1999.90;999.90;;;;;;;;;;5012578;28;20477;-75
2023/02/26 09:34:46;;;;;;;1999.90;999.90;;;;;;;;;;5012372;28;20226;-74
2023/02/26 09:37:31;;;;;;;1999.90;999.90;;;;;;;;;;5010502;28;20451;-75
2023/02/26 09:40:22;;;;;;;1999.90;999.90;;;;;;;;;;4999351;28;20427;-74
2023/02/26 09:43:16;;;;;;;1999.90;999.90;;;;;;;;;;5010713;28;20300;-75
2023/02/26 09:46:03;;;;;;;1999.90;999.90;;;;;;;;;;5008410;28;20218;-76
2023/02/26 09:48:49;;;;;;;1999.90;999.90;;;;;;;;;;5007085;28;20297;-75
2023/02/26 09:51:35;;;;;;;1999.90;999.90;;;;;;;;;;5012622;28;20207;-75
2023/02/26 09:54:21;;;;;;;1999.90;999.90;;;;;;;;;;5015144;28;20365;-74
2023/02/26 09:57:09;;;;;;;1999.90;999.90;;;;;;;;;;5010447;28;20261;-74
2023/02/26 09:59:55;;;;;;;1999.90;999.90;;;;;;;;;;5012657;28;20222;-73
2023/02/26 10:02:45;;;;;;;1999.90;999.90;;;;;;;;;;5012646;28;20226;-74
2023/02/26 10:05:33;;;;;;;1999.90;999.90;;;;;;;;;;5009079;28;20227;-73
2023/02/26 10:08:21;;;;;;;1999.90;999.90;;;;;;;;;;5008393;28;20210;-74
2023/02/26 10:11:10;;;;;;;1999.90;999.90;;;;;;;;;;5010080;28;20207;-74
2023/02/26 10:13:57;;;;;;;1999.90;999.90;;;;;;;;;;5011041;28;20608;-73
2023/02/26 10:16:46;;;;;;;1999.90;999.90;;;;;;;;;;5012065;28;20230;-74
2023/02/26 10:19:33;;;;;;;1999.90;999.90;;;;;;;;;;5013841;28;20231;-73
2023/02/26 10:22:22;;;;;;;1999.90;999.90;;;;;;;;;;5016222;28;20721;-73
2023/02/26 10:25:10;;;;;;;1999.90;999.90;;;;;;;;;;5015139;28;20230;-74
2023/02/26 10:27:59;;;;;;;1999.90;999.90;;;;;;;;;;5014558;28;20567;-72
2023/02/26 10:30:46;;;;;;;1999.90;999.90;;;;;;;;;;5010525;28;20253;-74
2023/02/26 10:33:37;;;;;;;1999.90;999.90;;;;;;;;;;5012911;28;20202;-74
2023/02/26 10:36:24;;;;;;;1999.90;999.90;;;;;;;;;;5011422;28;20706;-74
2023/02/26 10:39:16;;;;;;;1999.90;999.90;;;;;;;;;;5014249;28;20580;-74
2023/02/26 10:42:03;;;;;;;1999.90;999.90;;;;;;;;;;5015637;28;20226;-74
2023/02/26 10:44:53;;;;;;;1999.90;999.90;;;;;;;;;;5011374;28;20226;-74
2023/02/26 10:47:43;;;;;;;1999.90;999.90;;;;;;;;;;5016569;28;20314;-74
2023/02/26 10:50:31;;;;;;;1999.90;999.90;;;;;;;;;;5010484;28;20274;-73
2023/02/26 10:53:16;;;;;;;1999.90;999.90;;;;;;;;;;5014650;28;20214;-73
2023/02/26 10:56:04;;;;;;;1999.90;999.90;;;;;;;;;;5013771;28;20833;-74
2023/02/26 10:58:51;;;;;;;1999.90;999.90;;;;;;;;;;5014120;28;20338;-74
2023/02/26 11:01:35;;;;;;;1999.90;999.90;;;;;;;;;;5014227;28;20202;-74
2023/02/26 11:04:22;;;;;;;1999.90;999.90;;;;;;;;;;5007512;28;20253;-73
2023/02/26 11:07:09;;;;;;;1999.90;999.90;;;;;;;;;;5012186;28;20283;-74
2023/02/26 11:09:54;;;;;;;1999.90;999.90;;;;;;;;;;5011610;28;21195;-74
2023/02/26 11:12:39;;;;;;;1999.90;999.90;;;;;;;;;;5013175;28;20206;-72
2023/02/26 11:15:26;;;;;;;1999.90;999.90;;;;;;;;;;5010544;28;20230;-74
2023/02/26 11:18:15;;;;;;;1999.90;999.90;;;;;;;;;;5011473;28;20253;-75
2023/02/26 11:21:01;;;;;;;1999.90;999.90;;;;;;;;;;5013554;28;20378;-74
2023/02/26 11:23:49;;;;;;;1999.90;999.90;;;;;;;;;;5010796;28;20223;-74
2023/02/26 11:26:35;;;;;;;1999.90;999.90;;;;;;;;;;5012456;28;20291;-74
2023/02/26 11:29:22;;;;;;;1999.90;999.90;;;;;;;;;;5013277;28;20330;-74
2023/02/26 11:32:13;;;;;;;1999.90;999.90;;;;;;;;;;5011992;28;20585;-74
2023/02/26 11:34:58;;;;;;;1999.90;999.90;;;;;;;;;;5011997;28;20265;-74
2023/02/26 11:37:47;;;;;;;1999.90;999.90;;;;;;;;;;5012985;28;20207;-74
2023/02/26 11:40:37;;;;;;;1999.90;999.90;;;;;;;;;;5016270;28;20230;-74
2023/02/26 11:43:23;;;;;;;1999.90;999.90;;;;;;;;;;5010455;28;20351;-74
2023/02/26 11:46:09;;;;;;;1999.90;999.90;;;;;;;;;;5010277;28;20198;-74
2023/02/26 11:48:56;;;;;;;1999.90;999.90;;;;;;;;;;5015750;28;20253;-74
2023/02/26 11:51:42;;;;;;;1999.90;999.90;;;;;;;;;;5012246;28;20226;-74
2023/02/26 11:54:28;;;;;;;1999.90;999.90;;;;;;;;;;5008893;28;20358;-74
2023/02/26 11:57:17;;;;;;;1999.90;999.90;;;;;;;;;;5009985;28;20211;-72
2023/02/26 12:00:15;;;;;;;1999.90;999.90;;;;;;;;;;5008137;28;20342;-74
2023/02/26 12:03:03;;;;;;;1999.90;999.90;;;;;;;;;;5007663;28;20226;-73
2023/02/26 12:05:48;;;;;;;1999.90;999.90;;;;;;;;;;5008804;28;20230;-72
2023/02/26 12:08:37;;;;;;;1999.90;999.90;;;;;;;;;;5008559;28;20202;-74
2023/02/26 12:11:34;;;;;;;1999.90;999.90;;;;;;;;;;5009821;28;20382;-74
2023/02/26 12:14:27;;;;;;;1999.90;999.90;;;;;;;;;;5009158;28;20238;-74
2023/02/26 12:17:17;;;;;;;1999.90;999.90;;;;;;;;;;5007919;28;20573;-74
2023/02/26 12:20:13;;;;;;;1999.90;999.90;;;;;;;;;;5008032;28;20322;-72
2023/02/26 12:23:15;;;;;;;1999.90;999.90;;;;;;;;;;5006414;28;20230;-74
2023/02/26 12:26:11;;;;;;;1999.90;999.90;;;;;;;;;;5009162;28;20583;-73
2023/02/26 12:29:08;;;;;;;1999.90;999.90;;;;;;;;;;5006491;28;20432;-73
2023/02/26 12:32:03;;;;;;;1999.90;999.90;;;;;;;;;;5007891;28;20223;-74
2023/02/26 12:34:55;;;;;;;1999.90;999.90;;;;;;;;;;5008812;28;20238;-73
2023/02/26 12:37:49;;;;;;;1999.90;999.90;;;;;;;;;;5008574;28;20249;-72
2023/02/26 12:40:50;;;;;;;1999.90;999.90;;;;;;;;;;5008249;28;20218;-74
2023/02/26 12:43:40;;;;;;;1999.90;999.90;;;;;;;;;;5007977;28;20326;-73
2023/02/26 12:46:35;;;;;;;1999.90;999.90;;;;;;;;;;5007893;28;20202;-73
2023/02/26 12:49:42;;;;;;;1999.90;999.90;;;;;;;;;;5007889;28;20242;-72
2023/02/26 12:52:36;;;;;;;1999.90;999.90;;;;;;;;;;5009089;28;20210;-76
2023/02/26 12:55:26;;;;;;;1999.90;999.90;;;;;;;;;;5008009;28;20233;-72
2023/02/26 12:58:16;;;;;;;1999.90;999.90;;;;;;;;;;5007057;28;20570;-74
2023/02/26 13:01:13;;;;;;;1999.90;999.90;;;;;;;;;;5003699;28;20950;-74
2023/02/26 13:04:15;;;;;;;1999.90;999.90;;;;;;;;;;5005521;28;20273;-75
2023/02/26 13:07:09;;;;;;;1999.90;999.90;;;;;;;;;;5011823;28;20222;-71
2023/02/26 13:09:58;;;;;;;1999.90;999.90;;;;;;;;;;5011721;28;20211;-74
2023/02/26 13:12:48;;;;;;;1999.90;999.90;;;;;;;;;;5013963;28;20755;-74
2023/02/26 13:15:40;;;;;;;1999.90;999.90;;;;;;;;;;5006820;28;20278;-75
2023/02/26 13:18:29;;;;;;;1999.90;999.90;;;;;;;;;;5002946;28;20214;-73
2023/02/26 13:21:18;;;;;;;1999.90;999.90;;;;;;;;;;5009269;28;20256;-74
2023/02/26 13:24:06;;;;;;;1999.90;999.90;;;;;;;;;;5008319;28;20801;-74
2023/02/26 13:26:52;;;;;;;1999.90;999.90;;;;;;;;;;5008901;28;20206;-74
2023/02/26 13:29:42;;;;;;;1999.90;999.90;;;;;;;;;;5013710;28;20221;-74
2023/02/26 13:32:28;;;;;;;1999.90;999.90;;;;;;;;;;5015538;28;20214;-74
2023/02/26 13:35:18;;;;;;;1999.90;999.90;;;;;;;;;;5013790;28;20234;-74
2023/02/26 13:38:07;;;;;;;1999.90;999.90;;;;;;;;;;5015126;28;20213;-73
2023/02/26 13:40:58;;;;;;;1999.90;999.90;;;;;;;;;;5010140;28;20202;-73
2023/02/26 13:43:52;;;;;;;1999.90;999.90;;;;;;;;;;5012711;28;20226;-72
2023/02/26 13:46:48;;;;;;;1999.90;999.90;;;;;;;;;;5013723;28;20576;-71
2023/02/26 13:49:38;;;;;;;1999.90;999.90;;;;;;;;;;5012094;28;20210;-73
2023/02/26 13:52:25;;;;;;;1999.90;999.90;;;;;;;;;;5012330;28;20285;-71
2023/02/26 13:55:34;;;;;;;1999.90;999.90;;;;;;;;;;5010876;28;20652;-72
2023/02/26 13:58:38;;;;;;;1999.90;999.90;;;;;;;;;;5010439;28;20202;-73
2023/02/26 14:01:28;;;;;;;1999.90;999.90;;;;;;;;;;5009501;28;20280;-75
2023/02/26 14:04:23;;;;;;;1999.90;999.90;;;;;;;;;;5007613;28;20226;-74
2023/02/26 14:07:11;;;;;;;1999.90;999.90;;;;;;;;;;5014079;28;20222;-76
2023/02/26 14:10:00;;;;;;;1999.90;999.90;;;;;;;;;;5012350;28;20936;-75
2023/02/26 14:12:45;;;;;;;1999.90;999.90;;;;;;;;;;5010506;28;20277;-74
2023/02/26 14:15:42;;;;;;;1999.90;999.90;;;;;;;;;;5009762;28;20249;-74
2023/02/26 14:18:36;;;;;;;1999.90;999.90;;;;;;;;;;5003943;28;20207;-74
2023/02/26 14:21:38;;;;;;;1999.90;999.90;;;;;;;;;;5010769;28;20205;-74
2023/02/26 14:24:26;;;;;;;1999.90;999.90;;;;;;;;;;5010573;28;20230;-73
2023/02/26 14:27:31;;;;;;;1999.90;999.90;;;;;;;;;;5009631;28;20767;-75
2023/02/26 14:30:19;;;;;;;1999.90;999.90;;;;;;;;;;5009059;28;20215;-74
2023/02/26 14:33:08;;;;;;;1999.90;999.90;;;;;;;;;;5009708;28;20231;-74
2023/02/26 14:35:55;;;;;;;1999.90;999.90;;;;;;;;;;5007260;28;20905;-73
2023/02/26 14:38:41;;;;;;;1999.90;999.90;;;;;;;;;;5011817;28;20214;-71
2023/02/26 14:41:29;;;;;;;1999.90;999.90;;;;;;;;;;5013649;28;20722;-73
2023/02/26 14:44:15;;;;;;;1999.90;999.90;;;;;;;;;;5011082;28;20246;-73
2023/02/26 14:47:00;;;;;;;1999.90;999.90;;;;;;;;;;5010351;28;20218;-73
2023/02/26 14:49:46;;;;;;;1999.90;999.90;;;;;;;;;;5010062;28;20214;-73
2023/02/26 14:52:38;;;;;;;1999.90;999.90;;;;;;;;;;5011734;28;20210;-73
2023/02/26 14:55:32;;;;;;;1999.90;999.90;;;;;;;;;;5013943;28;20227;-74
2023/02/26 14:58:26;;;;;;;1999.90;999.90;;;;;;;;;;5015929;28;20578;-75
2023/02/26 15:01:18;;;;;;;1999.90;999.90;;;;;;;;;;5008168;28;20206;-74
2023/02/26 15:04:10;;;;;;;1999.90;999.90;;;;;;;;;;5007687;28;20733;-72
2023/02/26 15:07:01;;;;;;;1999.90;999.90;;;;;;;;;;5009783;28;20301;-74
2023/02/26 15:09:54;;;;;;;1999.90;999.90;;;;;;;;;;5008587;28;20281;-73
2023/02/26 15:12:46;;;;;;;1999.90;999.90;;;;;;;;;;5011086;28;20206;-73
2023/02/26 15:15:36;;;;;;;1999.90;999.90;;;;;;;;;;5014068;28;20354;-73
2023/02/26 15:18:38;;;;;;;1999.90;999.90;;;;;;;;;;5012053;28;20211;-73
2023/02/26 15:21:28;;;;;;;1999.90;999.90;;;;;;;;;;5010380;28;20718;-73
2023/02/26 15:24:14;;;;;;;1999.90;999.90;;;;;;;;;;5012294;28;20234;-72
2023/02/26 15:27:02;;;;;;;1999.90;999.90;;;;;;;;;;5009874;28;20254;-73
2023/02/26 15:29:49;;;;;;;1999.90;999.90;;;;;;;;;;5009104;28;20218;-75
2023/02/26 15:32:37;;;;;;;1999.90;999.90;;;;;;;;;;5006856;28;20262;-73
2023/02/26 15:35:23;;;;;;;1999.90;999.90;;;;;;;;;;5010473;28;20242;-74